sensor_id;sensor_type;location;lat;lon;timestamp;temperature;humidity
7212;DHT22;3647;48.792;9.802;2023-05-07T05:27:30;14.30;99.90
7212;DHT22;3647;48.792;9.802;2023-05-07T05:29:57;14.20;99.90
7212;DHT22;3647;48.792;9.802;2023-05-07T05:32:24;14.10;99.90
7212;DHT22;3647;48.792;9.802;2023-05-07T05:34:51;14.30;99.90
7212;DHT22;3647;48.792;9.802;2023-05-07T05:37:18;14.50;99.90
7212;DHT22;3647;48.792;9.802;2023-05-07T05:39:45;14.70;99.90
7212;DHT22;3647;48.792;9.802;2023-05-07T05:42:12;14.70;99.90
7212;DHT22;3647;48.792;9.802;2023-05-07T05:44:40;15.10;99.90
7212;DHT22;3647;48.792;9.802;2023-05-07T05:47:07;15.70;99.90
7212;DHT22;3647;48.792;9.802;2023-05-07T05:49:34;16.50;99.90
7212;DHT22;3647;48.792;9.802;2023-05-07T05:52:01;17.00;99.90
7212;DHT22;3647;48.792;9.802;2023-05-07T05:54:28;17.10;99.90
7212;DHT22;3647;48.792;9.802;2023-05-07T05:56:55;17.70;99.90
7212;DHT22;3647;48.792;9.802;2023-05-07T05:59:22;17.90;99.90
7212;DHT22;3647;48.792;9.802;2023-05-07T06:01:51;17.90;99.90
7212;DHT22;3647;48.792;9.802;2023-05-07T06:04:17;17.40;99.90
7212;DHT22;3647;48.792;9.802;2023-05-07T06:06:44;17.90;99.90
7212;DHT22;3647;48.792;9.802;2023-05-07T06:09:11;17.30;99.90
7212;DHT22;3647;48.792;9.802;2023-05-07T06:11:38;17.50;99.90
7212;DHT22;3647;48.792;9.802;2023-05-07T06:14:06;17.60;99.90
7212;DHT22;3647;48.792;9.802;2023-05-07T06:16:33;17.80;99.90
7212;DHT22;3647;48.792;9.802;2023-05-07T06:19:01;18.30;99.90
7212;DHT22;3647;48.792;9.802;2023-05-07T06:21:28;18.30;99.90
7212;DHT22;3647;48.792;9.802;2023-05-07T06:23:55;18.60;99.90
7212;DHT22;3647;48.792;9.802;2023-05-07T06:26:22;19.80;99.90
7212;DHT22;3647;48.792;9.802;2023-05-07T06:28:49;18.90;99.90
7212;DHT22;3647;48.792;9.802;2023-05-07T06:31:18;19.10;99.90
7212;DHT22;3647;48.792;9.802;2023-05-07T06:33:46;19.20;99.90
7212;DHT22;3647;48.792;9.802;2023-05-07T06:36:14;19.40;99.90
7212;DHT22;3647;48.792;9.802;2023-05-07T06:38:41;19.50;99.90
7212;DHT22;3647;48.792;9.802;2023-05-07T06:41:08;19.70;99.90
7212;DHT22;3647;48.792;9.802;2023-05-07T06:43:35;20.00;99.90
7212;DHT22;3647;48.792;9.802;2023-05-07T06:46:02;20.00;99.90
7212;DHT22;3647;48.792;9.802;2023-05-07T06:48:29;20.10;99.90
7212;DHT22;3647;48.792;9.802;2023-05-07T06:50:56;20.30;99.90
7212;DHT22;3647;48.792;9.802;2023-05-07T06:53:24;20.30;99.90
7212;DHT22;3647;48.792;9.802;2023-05-07T06:55:52;21.00;99.90
7212;DHT22;3647;48.792;9.802;2023-05-07T06:58:19;19.80;99.90
7212;DHT22;3647;48.792;9.802;2023-05-07T07:00:46;22.20;99.90
7212;DHT22;3647;48.792;9.802;2023-05-07T07:03:13;19.70;99.90
7212;DHT22;3647;48.792;9.802;2023-05-07T07:05:40;19.70;99.90
7212;DHT22;3647;48.792;9.802;2023-05-07T07:08:07;19.70;99.90
7212;DHT22;3647;48.792;9.802;2023-05-07T07:10:35;19.70;99.90
7212;DHT22;3647;48.792;9.802;2023-05-07T07:13:02;19.70;99.90
7212;DHT22;3647;48.792;9.802;2023-05-07T07:15:29;19.90;99.90
7212;DHT22;3647;48.792;9.802;2023-05-07T07:17:55;20.20;99.90
7212;DHT22;3647;48.792;9.802;2023-05-07T07:20:22;20.20;99.90
7212;DHT22;3647;48.792;9.802;2023-05-07T07:22:49;20.30;99.90
7212;DHT22;3647;48.792;9.802;2023-05-07T07:25:16;20.40;99.90
7212;DHT22;3647;48.792;9.802;2023-05-07T07:27:44;20.50;99.90
7212;DHT22;3647;48.792;9.802;2023-05-07T07:30:11;20.80;99.90
7212;DHT22;3647;48.792;9.802;2023-05-07T07:32:38;21.30;99.90
7212;DHT22;3647;48.792;9.802;2023-05-07T07:35:06;21.80;99.90
7212;DHT22;3647;48.792;9.802;2023-05-07T07:37:33;22.10;99.90
7212;DHT22;3647;48.792;9.802;2023-05-07T07:40:00;22.20;99.90
7212;DHT22;3647;48.792;9.802;2023-05-07T07:42:27;22.30;99.90
7212;DHT22;3647;48.792;9.802;2023-05-07T07:44:56;22.60;99.90
7212;DHT22;3647;48.792;9.802;2023-05-07T07:47:23;22.80;99.90
7212;DHT22;3647;48.792;9.802;2023-05-07T07:49:49;22.60;99.90
7212;DHT22;3647;48.792;9.802;2023-05-07T07:52:16;22.60;99.90
7212;DHT22;3647;48.792;9.802;2023-05-07T07:54:43;22.50;99.90
7212;DHT22;3647;48.792;9.802;2023-05-07T07:57:10;22.90;99.90
7212;DHT22;3647;48.792;9.802;2023-05-07T07:59:37;23.00;99.90
7212;DHT22;3647;48.792;9.802;2023-05-07T08:02:06;23.30;99.90
7212;DHT22;3647;48.792;9.802;2023-05-07T08:04:33;23.30;99.90
7212;DHT22;3647;48.792;9.802;2023-05-07T08:06:59;23.30;99.90
7212;DHT22;3647;48.792;9.802;2023-05-07T08:09:26;23.60;99.90
7212;DHT22;3647;48.792;9.802;2023-05-07T08:11:53;24.00;99.90
7212;DHT22;3647;48.792;9.802;2023-05-07T08:14:20;24.20;99.90
7212;DHT22;3647;48.792;9.802;2023-05-07T08:16:47;24.30;99.90
7212;DHT22;3647;48.792;9.802;2023-05-07T08:19:15;24.30;99.90
7212;DHT22;3647;48.792;9.802;2023-05-07T08:21:42;24.20;99.90
7212;DHT22;3647;48.792;9.802;2023-05-07T08:24:08;24.20;99.90
7212;DHT22;3647;48.792;9.802;2023-05-07T08:26:35;23.90;99.90
7212;DHT22;3647;48.792;9.802;2023-05-07T08:29:04;24.10;99.90
7212;DHT22;3647;48.792;9.802;2023-05-07T08:31:31;24.30;99.90
7212;DHT22;3647;48.792;9.802;2023-05-07T08:33:58;24.20;99.90
7212;DHT22;3647;48.792;9.802;2023-05-07T08:36:26;23.50;99.90
7212;DHT22;3647;48.792;9.802;2023-05-07T08:38:54;23.90;99.90
7212;DHT22;3647;48.792;9.802;2023-05-07T08:41:21;24.40;99.90
7212;DHT22;3647;48.792;9.802;2023-05-07T08:43:48;24.70;99.90
7212;DHT22;3647;48.792;9.802;2023-05-07T08:46:18;25.00;99.90
7212;DHT22;3647;48.792;9.802;2023-05-07T08:48:47;25.00;99.90
7212;DHT22;3647;48.792;9.802;2023-05-07T08:51:16;25.00;99.90
7212;DHT22;3647;48.792;9.802;2023-05-07T08:53:45;25.30;99.90
7212;DHT22;3647;48.792;9.802;2023-05-07T08:56:14;25.50;99.90
7212;DHT22;3647;48.792;9.802;2023-05-07T08:58:41;25.60;99.90
7212;DHT22;3647;48.792;9.802;2023-05-07T09:01:09;25.50;99.90
7212;DHT22;3647;48.792;9.802;2023-05-07T09:03:37;24.60;99.90
7212;DHT22;3647;48.792;9.802;2023-05-07T09:06:04;24.40;99.90
7212;DHT22;3647;48.792;9.802;2023-05-07T09:08:32;24.90;99.90
7212;DHT22;3647;48.792;9.802;2023-05-07T09:11:01;25.40;99.90
7212;DHT22;3647;48.792;9.802;2023-05-07T09:13:28;25.70;99.90
7212;DHT22;3647;48.792;9.802;2023-05-07T09:15:55;26.10;99.90
7212;DHT22;3647;48.792;9.802;2023-05-07T09:18:23;26.60;99.90
7212;DHT22;3647;48.792;9.802;2023-05-07T09:20:50;27.10;99.90
7212;DHT22;3647;48.792;9.802;2023-05-07T09:23:17;27.20;99.90
7212;DHT22;3647;48.792;9.802;2023-05-07T09:25:44;26.40;99.90
7212;DHT22;3647;48.792;9.802;2023-05-07T09:28:12;25.90;99.90
7212;DHT22;3647;48.792;9.802;2023-05-07T09:30:39;25.20;99.90
7212;DHT22;3647;48.792;9.802;2023-05-07T09:33:05;25.30;99.90
7212;DHT22;3647;48.792;9.802;2023-05-07T09:35:32;25.40;99.90
7212;DHT22;3647;48.792;9.802;2023-05-07T09:38:00;25.70;99.90
7212;DHT22;3647;48.792;9.802;2023-05-07T09:40:30;26.00;99.90
7212;DHT22;3647;48.792;9.802;2023-05-07T09:43:08;26.30;99.90
7212;DHT22;3647;48.792;9.802;2023-05-07T09:45:37;26.60;99.90
7212;DHT22;3647;48.792;9.802;2023-05-07T09:48:05;26.80;99.90
7212;DHT22;3647;48.792;9.802;2023-05-07T09:50:36;26.80;99.90
7212;DHT22;3647;48.792;9.802;2023-05-07T09:53:04;26.90;99.90
7212;DHT22;3647;48.792;9.802;2023-05-07T09:55:31;27.10;99.90
7212;DHT22;3647;48.792;9.802;2023-05-07T09:57:59;27.40;99.90
7212;DHT22;3647;48.792;9.802;2023-05-07T10:00:28;27.30;99.90
7212;DHT22;3647;48.792;9.802;2023-05-07T10:02:57;27.00;99.90
7212;DHT22;3647;48.792;9.802;2023-05-07T10:05:25;26.60;99.90
7212;DHT22;3647;48.792;9.802;2023-05-07T10:07:53;26.60;99.90
7212;DHT22;3647;48.792;9.802;2023-05-07T10:10:21;26.40;99.90
7212;DHT22;3647;48.792;9.802;2023-05-07T10:12:49;25.80;99.90
7212;DHT22;3647;48.792;9.802;2023-05-07T10:15:17;25.60;99.90
7212;DHT22;3647;48.792;9.802;2023-05-07T10:17:44;25.40;99.50
7212;DHT22;3647;48.792;9.802;2023-05-07T10:20:13;25.00;99.90
7212;DHT22;3647;48.792;9.802;2023-05-07T10:22:43;24.80;99.90
7212;DHT22;3647;48.792;9.802;2023-05-07T10:25:14;25.10;99.90
7212;DHT22;3647;48.792;9.802;2023-05-07T10:27:43;24.90;99.90
7212;DHT22;3647;48.792;9.802;2023-05-07T10:30:16;24.80;99.90
7212;DHT22;3647;48.792;9.802;2023-05-07T10:32:48;24.80;99.90
7212;DHT22;3647;48.792;9.802;2023-05-07T10:35:20;25.00;99.90
7212;DHT22;3647;48.792;9.802;2023-05-07T10:37:48;24.80;99.90
7212;DHT22;3647;48.792;9.802;2023-05-07T10:40:15;24.80;99.90
7212;DHT22;3647;48.792;9.802;2023-05-07T10:42:54;25.00;99.90
7212;DHT22;3647;48.792;9.802;2023-05-07T10:45:22;25.10;99.90
7212;DHT22;3647;48.792;9.802;2023-05-07T10:48:11;25.10;99.90
7212;DHT22;3647;48.792;9.802;2023-05-07T10:50:41;25.20;99.90
7212;DHT22;3647;48.792;9.802;2023-05-07T10:53:22;25.20;99.90
7212;DHT22;3647;48.792;9.802;2023-05-07T10:56:23;25.40;99.90
7212;DHT22;3647;48.792;9.802;2023-05-07T10:58:40;25.30;99.90
7212;DHT22;3647;48.792;9.802;2023-05-07T11:01:07;25.50;99.90
7212;DHT22;3647;48.792;9.802;2023-05-07T11:03:35;25.50;99.90
7212;DHT22;3647;48.792;9.802;2023-05-07T11:06:09;25.50;99.90
7212;DHT22;3647;48.792;9.802;2023-05-07T11:08:55;25.50;99.90
7212;DHT22;3647;48.792;9.802;2023-05-07T11:11:44;25.60;99.90
7212;DHT22;3647;48.792;9.802;2023-05-07T11:14:13;25.70;99.90
7212;DHT22;3647;48.792;9.802;2023-05-07T11:16:41;25.70;99.90
7212;DHT22;3647;48.792;9.802;2023-05-07T11:19:08;25.70;99.90
7212;DHT22;3647;48.792;9.802;2023-05-07T11:21:35;25.60;99.90
7212;DHT22;3647;48.792;9.802;2023-05-07T11:24:03;25.10;99.90
7212;DHT22;3647;48.792;9.802;2023-05-07T11:26:41;24.70;99.90
7212;DHT22;3647;48.792;9.802;2023-05-07T11:29:12;24.80;99.90
7212;DHT22;3647;48.792;9.802;2023-05-07T11:31:40;24.90;99.90
7212;DHT22;3647;48.792;9.802;2023-05-07T11:34:06;24.90;99.90
7212;DHT22;3647;48.792;9.802;2023-05-07T11:36:34;25.00;99.90
7212;DHT22;3647;48.792;9.802;2023-05-07T11:39:00;25.20;99.90
7212;DHT22;3647;48.792;9.802;2023-05-07T11:41:34;25.00;99.90
7212;DHT22;3647;48.792;9.802;2023-05-07T11:44:02;25.00;99.90
7212;DHT22;3647;48.792;9.802;2023-05-07T11:46:30;24.90;99.90
7212;DHT22;3647;48.792;9.802;2023-05-07T11:48:57;24.80;99.90
7212;DHT22;3647;48.792;9.802;2023-05-07T11:51:25;25.00;99.90
7212;DHT22;3647;48.792;9.802;2023-05-07T11:53:52;24.90;99.90
7212;DHT22;3647;48.792;9.802;2023-05-07T11:56:20;24.90;99.90
7212;DHT22;3647;48.792;9.802;2023-05-07T11:58:47;24.70;99.90
7212;DHT22;3647;48.792;9.802;2023-05-07T12:01:15;24.60;99.90
7212;DHT22;3647;48.792;9.802;2023-05-07T12:03:46;24.70;99.90
7212;DHT22;3647;48.792;9.802;2023-05-07T12:06:14;24.90;99.90
7212;DHT22;3647;48.792;9.802;2023-05-07T12:08:42;24.90;99.90
7212;DHT22;3647;48.792;9.802;2023-05-07T12:11:10;24.90;99.90
7212;DHT22;3647;48.792;9.802;2023-05-07T12:13:38;24.90;99.90
7212;DHT22;3647;48.792;9.802;2023-05-07T12:16:06;25.10;99.90
7212;DHT22;3647;48.792;9.802;2023-05-07T12:18:35;24.90;99.90
7212;DHT22;3647;48.792;9.802;2023-05-07T12:21:05;24.50;99.90
7212;DHT22;3647;48.792;9.802;2023-05-07T12:23:32;24.50;99.90
7212;DHT22;3647;48.792;9.802;2023-05-07T12:26:00;24.60;99.90
7212;DHT22;3647;48.792;9.802;2023-05-07T12:28:26;24.60;99.90
7212;DHT22;3647;48.792;9.802;2023-05-07T12:30:53;24.80;99.90
7212;DHT22;3647;48.792;9.802;2023-05-07T12:33:24;24.90;99.90
7212;DHT22;3647;48.792;9.802;2023-05-07T12:35:54;24.80;99.90
7212;DHT22;3647;48.792;9.802;2023-05-07T12:38:22;24.80;99.70
7212;DHT22;3647;48.792;9.802;2023-05-07T12:40:50;24.90;99.90
7212;DHT22;3647;48.792;9.802;2023-05-07T12:43:20;24.60;99.70
7212;DHT22;3647;48.792;9.802;2023-05-07T12:45:49;24.80;99.90
7212;DHT22;3647;48.792;9.802;2023-05-07T12:48:16;24.70;99.90
7212;DHT22;3647;48.792;9.802;2023-05-07T12:50:43;24.50;99.90
7212;DHT22;3647;48.792;9.802;2023-05-07T12:53:11;24.50;99.90
7212;DHT22;3647;48.792;9.802;2023-05-07T12:55:44;24.60;99.90
7212;DHT22;3647;48.792;9.802;2023-05-07T12:58:15;24.80;99.90
7212;DHT22;3647;48.792;9.802;2023-05-07T13:00:43;24.90;99.90
7212;DHT22;3647;48.792;9.802;2023-05-07T13:03:10;25.10;99.90
7212;DHT22;3647;48.792;9.802;2023-05-07T13:05:37;25.20;99.90
7212;DHT22;3647;48.792;9.802;2023-05-07T13:08:04;25.20;99.90
7212;DHT22;3647;48.792;9.802;2023-05-07T13:10:31;25.20;99.90
7212;DHT22;3647;48.792;9.802;2023-05-07T13:13:00;25.00;99.90
7212;DHT22;3647;48.792;9.802;2023-05-07T13:15:27;25.00;99.90
7212;DHT22;3647;48.792;9.802;2023-05-07T13:17:54;24.60;99.90
7212;DHT22;3647;48.792;9.802;2023-05-07T13:20:21;24.60;99.90
7212;DHT22;3647;48.792;9.802;2023-05-07T13:22:48;24.50;99.90
7212;DHT22;3647;48.792;9.802;2023-05-07T13:25:15;24.50;99.90
7212;DHT22;3647;48.792;9.802;2023-05-07T13:27:42;24.40;99.90
7212;DHT22;3647;48.792;9.802;2023-05-07T13:30:10;24.40;99.90
7212;DHT22;3647;48.792;9.802;2023-05-07T13:32:37;24.40;99.90
7212;DHT22;3647;48.792;9.802;2023-05-07T13:35:04;24.30;99.90
7212;DHT22;3647;48.792;9.802;2023-05-07T13:37:32;24.20;99.90
7212;DHT22;3647;48.792;9.802;2023-05-07T13:39:58;24.10;99.90
7212;DHT22;3647;48.792;9.802;2023-05-07T13:42:25;24.00;99.90
7212;DHT22;3647;48.792;9.802;2023-05-07T13:44:52;24.00;99.90
7212;DHT22;3647;48.792;9.802;2023-05-07T13:47:20;24.00;99.90
7212;DHT22;3647;48.792;9.802;2023-05-07T13:49:47;24.00;99.90
7212;DHT22;3647;48.792;9.802;2023-05-07T13:52:15;23.90;99.90
7212;DHT22;3647;48.792;9.802;2023-05-07T13:54:42;23.90;99.90
7212;DHT22;3647;48.792;9.802;2023-05-07T13:57:08;23.80;99.90
7212;DHT22;3647;48.792;9.802;2023-05-07T13:59:35;23.80;99.90
7212;DHT22;3647;48.792;9.802;2023-05-07T14:02:02;23.70;99.90
7212;DHT22;3647;48.792;9.802;2023-05-07T14:04:30;23.60;99.90
7212;DHT22;3647;48.792;9.802;2023-05-07T14:06:57;23.60;99.90
7212;DHT22;3647;48.792;9.802;2023-05-07T14:09:24;23.60;99.90
7212;DHT22;3647;48.792;9.802;2023-05-07T14:11:51;23.50;99.90
7212;DHT22;3647;48.792;9.802;2023-05-07T14:14:17;23.50;99.90
7212;DHT22;3647;48.792;9.802;2023-05-07T14:16:44;23.50;99.90
7212;DHT22;3647;48.792;9.802;2023-05-07T14:19:11;23.40;99.90
7212;DHT22;3647;48.792;9.802;2023-05-07T14:21:39;23.50;99.90
7212;DHT22;3647;48.792;9.802;2023-05-07T14:24:07;23.60;99.90
7212;DHT22;3647;48.792;9.802;2023-05-07T14:26:34;23.60;99.90
7212;DHT22;3647;48.792;9.802;2023-05-07T14:29:00;23.60;99.90
7212;DHT22;3647;48.792;9.802;2023-05-07T14:31:27;23.50;99.90
7212;DHT22;3647;48.792;9.802;2023-05-07T14:33:54;23.50;99.90
7212;DHT22;3647;48.792;9.802;2023-05-07T14:36:23;23.50;99.90
7212;DHT22;3647;48.792;9.802;2023-05-07T14:38:53;23.50;99.90
7212;DHT22;3647;48.792;9.802;2023-05-07T14:41:20;23.40;99.90
7212;DHT22;3647;48.792;9.802;2023-05-07T14:43:47;23.40;99.90
7212;DHT22;3647;48.792;9.802;2023-05-07T14:46:16;23.20;99.90
7212;DHT22;3647;48.792;9.802;2023-05-07T14:48:43;23.20;99.90
7212;DHT22;3647;48.792;9.802;2023-05-07T14:51:11;23.00;99.90
7212;DHT22;3647;48.792;9.802;2023-05-07T14:53:38;22.80;99.90
7212;DHT22;3647;48.792;9.802;2023-05-07T14:56:07;24.20;99.90
7212;DHT22;3647;48.792;9.802;2023-05-07T14:58:34;23.30;99.90
7212;DHT22;3647;48.792;9.802;2023-05-07T15:01:01;23.30;99.90
7212;DHT22;3647;48.792;9.802;2023-05-07T15:03:28;22.10;99.90
7212;DHT22;3647;48.792;9.802;2023-05-07T15:05:55;22.10;99.90
7212;DHT22;3647;48.792;9.802;2023-05-07T15:08:22;24.70;99.90
7212;DHT22;3647;48.792;9.802;2023-05-07T15:10:49;21.80;99.90
7212;DHT22;3647;48.792;9.802;2023-05-07T15:13:17;22.90;99.90
7212;DHT22;3647;48.792;9.802;2023-05-07T15:15:44;21.50;99.90
7212;DHT22;3647;48.792;9.802;2023-05-07T15:18:12;21.40;99.90
7212;DHT22;3647;48.792;9.802;2023-05-07T15:20:39;21.30;99.90
7212;DHT22;3647;48.792;9.802;2023-05-07T15:23:06;21.10;99.90
7212;DHT22;3647;48.792;9.802;2023-05-07T15:25:35;22.20;99.90
7212;DHT22;3647;48.792;9.802;2023-05-07T15:28:02;20.60;99.90
7212;DHT22;3647;48.792;9.802;2023-05-07T15:30:31;20.30;99.90
7212;DHT22;3647;48.792;9.802;2023-05-07T15:32:57;20.30;99.90
7212;DHT22;3647;48.792;9.802;2023-05-07T15:35:25;20.10;99.90
7212;DHT22;3647;48.792;9.802;2023-05-07T15:37:52;20.00;99.90
7212;DHT22;3647;48.792;9.802;2023-05-07T15:40:19;19.90;99.90
7212;DHT22;3647;48.792;9.802;2023-05-07T15:42:46;19.80;99.90
7212;DHT22;3647;48.792;9.802;2023-05-07T15:45:13;19.70;99.90
7212;DHT22;3647;48.792;9.802;2023-05-07T15:47:41;19.70;99.90
7212;DHT22;3647;48.792;9.802;2023-05-07T15:50:09;19.70;99.90
7212;DHT22;3647;48.792;9.802;2023-05-07T15:52:36;19.60;99.90
7212;DHT22;3647;48.792;9.802;2023-05-07T15:55:04;19.60;99.90
7212;DHT22;3647;48.792;9.802;2023-05-07T15:57:32;19.60;99.90
7212;DHT22;3647;48.792;9.802;2023-05-07T15:59:58;19.60;99.90
7212;DHT22;3647;48.792;9.802;2023-05-07T16:02:25;20.40;99.90
7212;DHT22;3647;48.792;9.802;2023-05-07T16:04:54;19.60;99.90
7212;DHT22;3647;48.792;9.802;2023-05-07T16:07:20;20.50;99.90
7212;DHT22;3647;48.792;9.802;2023-05-07T16:09:48;20.60;99.90
7212;DHT22;3647;48.792;9.802;2023-05-07T16:12:14;19.60;99.90
7212;DHT22;3647;48.792;9.802;2023-05-07T16:14:42;19.50;99.90
7212;DHT22;3647;48.792;9.802;2023-05-07T16:17:09;19.50;99.90
7212;DHT22;3647;48.792;9.802;2023-05-07T16:19:36;19.40;99.90
7212;DHT22;3647;48.792;9.802;2023-05-07T16:22:04;19.30;99.90
7212;DHT22;3647;48.792;9.802;2023-05-07T16:24:31;19.20;99.90
7212;DHT22;3647;48.792;9.802;2023-05-07T16:26:58;19.10;99.90
7212;DHT22;3647;48.792;9.802;2023-05-07T16:29:25;19.00;99.90
7212;DHT22;3647;48.792;9.802;2023-05-07T16:31:52;19.00;99.90
7212;DHT22;3647;48.792;9.802;2023-05-07T16:37:42;18.70;99.90
7212;DHT22;3647;48.792;9.802;2023-05-07T16:40:10;18.70;99.90
7212;DHT22;3647;48.792;9.802;2023-05-07T16:42:37;18.50;99.90
7212;DHT22;3647;48.792;9.802;2023-05-07T16:45:05;18.50;99.90
7212;DHT22;3647;48.792;9.802;2023-05-07T16:47:32;18.30;99.90
7212;DHT22;3647;48.792;9.802;2023-05-07T16:49:59;18.20;99.90
7212;DHT22;3647;48.792;9.802;2023-05-07T16:52:26;20.60;99.90
7212;DHT22;3647;48.792;9.802;2023-05-07T16:54:54;18.20;99.90
7212;DHT22;3647;48.792;9.802;2023-05-07T16:57:25;18.10;99.90
7212;DHT22;3647;48.792;9.802;2023-05-07T16:59:52;18.10;99.90
7212;DHT22;3647;48.792;9.802;2023-05-07T17:02:21;18.10;99.90
7212;DHT22;3647;48.792;9.802;2023-05-07T17:04:47;18.10;99.90
7212;DHT22;3647;48.792;9.802;2023-05-07T17:07:14;18.10;99.90
7212;DHT22;3647;48.792;9.802;2023-05-07T17:09:41;18.10;99.90
7212;DHT22;3647;48.792;9.802;2023-05-07T17:12:10;18.00;99.90
7212;DHT22;3647;48.792;9.802;2023-05-07T17:14:36;18.00;99.90
7212;DHT22;3647;48.792;9.802;2023-05-07T17:17:03;17.90;99.90
7212;DHT22;3647;48.792;9.802;2023-05-07T17:19:30;17.80;99.90
7212;DHT22;3647;48.792;9.802;2023-05-07T17:21:57;17.80;99.90
7212;DHT22;3647;48.792;9.802;2023-05-07T17:24:23;17.70;99.90
7212;DHT22;3647;48.792;9.802;2023-05-07T17:26:50;17.60;99.90
7212;DHT22;3647;48.792;9.802;2023-05-07T17:29:18;17.60;99.90
7212;DHT22;3647;48.792;9.802;2023-05-07T17:31:45;17.60;99.90
7212;DHT22;3647;48.792;9.802;2023-05-07T17:34:13;17.60;99.90
7212;DHT22;3647;48.792;9.802;2023-05-07T17:36:39;17.60;99.90
7212;DHT22;3647;48.792;9.802;2023-05-07T17:39:06;17.50;99.90
7212;DHT22;3647;48.792;9.802;2023-05-07T17:41:34;17.50;99.90
7212;DHT22;3647;48.792;9.802;2023-05-07T17:44:01;17.50;99.90
7212;DHT22;3647;48.792;9.802;2023-05-07T17:46:30;17.50;99.90
7212;DHT22;3647;48.792;9.802;2023-05-07T17:48:56;17.50;99.90
7212;DHT22;3647;48.792;9.802;2023-05-07T17:51:23;17.40;99.90
7212;DHT22;3647;48.792;9.802;2023-05-07T17:53:52;17.30;99.90
7212;DHT22;3647;48.792;9.802;2023-05-07T17:56:18;17.30;99.90
7212;DHT22;3647;48.792;9.802;2023-05-07T17:58:45;17.20;99.90
7212;DHT22;3647;48.792;9.802;2023-05-07T18:01:12;18.30;99.90
7212;DHT22;3647;48.792;9.802;2023-05-07T18:03:40;17.10;99.90
7212;DHT22;3647;48.792;9.802;2023-05-07T18:06:07;16.90;99.90
7212;DHT22;3647;48.792;9.802;2023-05-07T18:08:34;17.50;99.90
7212;DHT22;3647;48.792;9.802;2023-05-07T18:11:01;16.50;99.90
7212;DHT22;3647;48.792;9.802;2023-05-07T18:13:30;16.40;99.90
7212;DHT22;3647;48.792;9.802;2023-05-07T18:15:57;16.30;99.90
7212;DHT22;3647;48.792;9.802;2023-05-07T18:18:24;16.10;99.90
7212;DHT22;3647;48.792;9.802;2023-05-07T18:20:56;16.00;99.90
7212;DHT22;3647;48.792;9.802;2023-05-07T18:23:23;16.00;99.90
7212;DHT22;3647;48.792;9.802;2023-05-07T18:25:50;15.90;99.90
7212;DHT22;3647;48.792;9.802;2023-05-07T18:28:17;15.90;99.90
7212;DHT22;3647;48.792;9.802;2023-05-07T18:30:44;15.80;99.90
7212;DHT22;3647;48.792;9.802;2023-05-07T18:33:12;15.80;99.90
7212;DHT22;3647;48.792;9.802;2023-05-07T18:35:39;15.90;99.90
7212;DHT22;3647;48.792;9.802;2023-05-07T18:38:07;16.10;99.90
7212;DHT22;3647;48.792;9.802;2023-05-07T18:40:34;16.00;99.90
7212;DHT22;3647;48.792;9.802;2023-05-07T18:43:01;16.00;99.90
7212;DHT22;3647;48.792;9.802;2023-05-07T18:45:32;16.10;99.90
7212;DHT22;3647;48.792;9.802;2023-05-07T18:47:59;16.10;99.90
7212;DHT22;3647;48.792;9.802;2023-05-07T18:50:26;16.10;99.90
7212;DHT22;3647;48.792;9.802;2023-05-07T18:52:53;16.10;99.90
7212;DHT22;3647;48.792;9.802;2023-05-07T18:55:21;16.00;99.90
7212;DHT22;3647;48.792;9.802;2023-05-07T18:57:48;16.00;99.90
7212;DHT22;3647;48.792;9.802;2023-05-07T19:00:15;16.00;99.90
7212;DHT22;3647;48.792;9.802;2023-05-07T19:02:42;15.90;99.90
7212;DHT22;3647;48.792;9.802;2023-05-07T19:05:09;15.90;99.90
7212;DHT22;3647;48.792;9.802;2023-05-07T19:07:36;15.90;99.90
7212;DHT22;3647;48.792;9.802;2023-05-07T19:10:03;15.80;99.90
7212;DHT22;3647;48.792;9.802;2023-05-07T19:12:31;15.80;99.90
7212;DHT22;3647;48.792;9.802;2023-05-07T19:14:58;15.80;99.90
7212;DHT22;3647;48.792;9.802;2023-05-07T19:17:25;15.80;99.90
7212;DHT22;3647;48.792;9.802;2023-05-07T19:19:52;15.70;99.90
7212;DHT22;3647;48.792;9.802;2023-05-07T19:22:19;15.70;99.90
7212;DHT22;3647;48.792;9.802;2023-05-07T19:24:46;15.90;99.90
7212;DHT22;3647;48.792;9.802;2023-05-07T19:27:13;15.60;99.90
7212;DHT22;3647;48.792;9.802;2023-05-07T19:29:41;15.60;99.90
7212;DHT22;3647;48.792;9.802;2023-05-07T19:32:09;15.60;99.90
7212;DHT22;3647;48.792;9.802;2023-05-07T19:34:35;15.50;99.90
7212;DHT22;3647;48.792;9.802;2023-05-07T19:37:02;18.50;99.90
7212;DHT22;3647;48.792;9.802;2023-05-07T19:39:29;17.20;99.90
7212;DHT22;3647;48.792;9.802;2023-05-07T19:41:56;15.50;99.90
7212;DHT22;3647;48.792;9.802;2023-05-07T19:44:23;15.50;99.90
7212;DHT22;3647;48.792;9.802;2023-05-07T19:46:51;15.50;99.90
7212;DHT22;3647;48.792;9.802;2023-05-07T19:49:18;15.50;99.90
7212;DHT22;3647;48.792;9.802;2023-05-07T19:51:45;15.50;99.90
7212;DHT22;3647;48.792;9.802;2023-05-07T19:54:12;16.90;99.90
7212;DHT22;3647;48.792;9.802;2023-05-07T19:56:38;15.50;99.90
7212;DHT22;3647;48.792;9.802;2023-05-07T19:59:06;15.50;99.90
7212;DHT22;3647;48.792;9.802;2023-05-07T20:01:33;15.40;99.90
7212;DHT22;3647;48.792;9.802;2023-05-07T20:04:02;15.40;99.90
7212;DHT22;3647;48.792;9.802;2023-05-07T20:06:28;15.30;99.90
7212;DHT22;3647;48.792;9.802;2023-05-07T20:08:56;15.30;99.90
7212;DHT22;3647;48.792;9.802;2023-05-07T20:11:23;15.30;99.90
7212;DHT22;3647;48.792;9.802;2023-05-07T20:13:50;15.20;99.90
7212;DHT22;3647;48.792;9.802;2023-05-07T20:16:17;15.80;99.90
7212;DHT22;3647;48.792;9.802;2023-05-07T20:18:43;15.20;99.90
7212;DHT22;3647;48.792;9.802;2023-05-07T20:21:12;15.20;99.90
7212;DHT22;3647;48.792;9.802;2023-05-07T20:23:39;15.20;99.90
7212;DHT22;3647;48.792;9.802;2023-05-07T20:26:06;15.20;99.90
7212;DHT22;3647;48.792;9.802;2023-05-07T20:28:32;15.20;99.90
7212;DHT22;3647;48.792;9.802;2023-05-07T20:30:59;15.20;99.90
7212;DHT22;3647;48.792;9.802;2023-05-07T20:33:26;16.70;99.90
7212;DHT22;3647;48.792;9.802;2023-05-07T20:35:53;15.20;99.90
7212;DHT22;3647;48.792;9.802;2023-05-07T20:38:21;15.20;99.90
7212;DHT22;3647;48.792;9.802;2023-05-07T20:40:48;15.20;99.90
7212;DHT22;3647;48.792;9.802;2023-05-07T20:43:15;15.20;99.90
7212;DHT22;3647;48.792;9.802;2023-05-07T20:45:42;15.20;99.90
7212;DHT22;3647;48.792;9.802;2023-05-07T20:48:08;15.30;99.90
7212;DHT22;3647;48.792;9.802;2023-05-07T20:50:35;15.80;99.90
7212;DHT22;3647;48.792;9.802;2023-05-07T20:53:02;15.10;99.90
7212;DHT22;3647;48.792;9.802;2023-05-07T20:55:30;15.10;99.90
7212;DHT22;3647;48.792;9.802;2023-05-07T20:57:57;15.20;99.90
7212;DHT22;3647;48.792;9.802;2023-05-07T21:00:24;15.00;99.90
7212;DHT22;3647;48.792;9.802;2023-05-07T21:02:51;15.10;99.90
